createdAt,value
2023-02-19T00:01:17.157Z,94.08
2023-02-19T00:03:48.209Z,93.58
2023-02-19T00:06:14.743Z,92.73
2023-02-19T00:08:41.308Z,92.35
2023-02-19T00:11:11.675Z,91.82
2023-02-19T00:13:40.414Z,93.06
2023-02-19T00:16:21.377Z,94.08
2023-02-19T00:18:48.175Z,95.11
2023-02-19T00:21:15.483Z,95.36
2023-02-19T00:23:42.046Z,96.35
2023-02-19T00:26:18.558Z,96.15
2023-02-19T00:28:46.438Z,97.35
2023-02-19T00:31:18.624Z,100.00
2023-02-19T00:33:46.942Z,100.00
2023-02-19T00:36:14.253Z,99.17
2023-02-19T00:38:41.978Z,96.94
2023-02-19T00:41:21.647Z,97.33
2023-02-19T00:43:57.309Z,98.04
2023-02-19T00:46:25.187Z,98.41
2023-02-19T00:48:55.331Z,96.66
2023-02-19T00:51:23.849Z,94.59
2023-02-19T00:53:51.005Z,93.59
2023-02-19T00:56:18.262Z,93.12
2023-02-19T00:58:44.987Z,92.70
2023-02-19T01:01:12.309Z,93.27
2023-02-19T01:03:39.533Z,91.91
2023-02-19T01:06:07.555Z,91.83
2023-02-19T01:08:34.531Z,93.60
2023-02-19T01:11:02.295Z,92.46
2023-02-19T01:13:29.101Z,92.79
2023-02-19T01:16:05.629Z,93.56
2023-02-19T01:18:32.574Z,92.99
2023-02-19T01:20:59.210Z,93.93
2023-02-19T01:23:26.198Z,93.95
2023-02-19T01:25:52.715Z,93.95
2023-02-19T01:28:19.210Z,93.64
2023-02-19T01:30:45.757Z,93.69
2023-02-19T01:33:12.280Z,93.89
2023-02-19T01:35:39.667Z,95.15
2023-02-19T01:38:08.307Z,97.34
2023-02-19T01:40:35.222Z,97.70
2023-02-19T01:43:03.628Z,97.82
2023-02-19T01:45:32.308Z,98.69
2023-02-19T01:48:26.670Z,99.15
2023-02-19T01:51:09.604Z,97.73
2023-02-19T01:53:47.719Z,96.41
2023-02-19T01:56:16.288Z,95.15
2023-02-19T01:58:43.158Z,95.16
2023-02-19T02:01:10.203Z,95.06
2023-02-19T02:03:40.302Z,96.40
2023-02-19T02:06:20.139Z,96.47
2023-02-19T02:09:06.199Z,98.58
2023-02-19T02:11:32.712Z,99.28
2023-02-19T02:13:59.407Z,100.00
2023-02-19T02:16:44.579Z,99.98
2023-02-19T02:19:29.889Z,99.71
2023-02-19T02:22:02.711Z,99.51
2023-02-19T02:24:44.567Z,99.74
2023-02-19T02:27:33.019Z,99.44
2023-02-19T02:30:08.281Z,100.00
2023-02-19T02:32:42.501Z,99.07
2023-02-19T02:35:13.411Z,98.58
2023-02-19T02:37:43.387Z,99.10
2023-02-19T02:40:12.117Z,96.77
2023-02-19T02:42:40.463Z,97.25
2023-02-19T02:45:38.048Z,96.92
2023-02-19T02:48:27.655Z,97.52
2023-02-19T02:51:13.293Z,96.86
2023-02-19T02:54:20.541Z,98.39
2023-02-19T02:56:48.932Z,98.75
2023-02-19T02:59:19.692Z,98.89
2023-02-19T03:02:12.025Z,97.56
2023-02-19T03:05:06.293Z,98.61
2023-02-19T03:08:00.814Z,99.01
2023-02-19T03:10:41.204Z,99.23
2023-02-19T03:13:32.171Z,100.00
2023-02-19T03:16:29.883Z,100.00
2023-02-19T03:19:17.333Z,100.00
2023-02-19T03:21:47.167Z,100.00
2023-02-19T03:24:34.733Z,99.05
2023-02-19T03:27:04.595Z,99.44
2023-02-19T03:29:35.653Z,98.54
2023-02-19T03:32:08.556Z,98.29
2023-02-19T03:34:39.065Z,97.49
2023-02-19T03:37:58.049Z,99.53
2023-02-19T03:40:29.556Z,100.00
2023-02-19T03:43:27.060Z,100.00
2023-02-19T03:45:57.770Z,98.66
2023-02-19T03:48:34.841Z,99.54
2023-02-19T03:51:12.734Z,100.00
2023-02-19T03:53:48.349Z,100.00
2023-02-19T03:56:18.738Z,100.00
2023-02-19T03:58:55.762Z,100.00
2023-02-19T04:01:28.834Z,100.00
2023-02-19T04:04:03.026Z,99.99
2023-02-19T04:06:32.858Z,99.41
2023-02-19T04:09:02.976Z,99.51
2023-02-19T04:11:32.140Z,99.21
2023-02-19T04:14:06.273Z,99.19
2023-02-19T04:16:35.230Z,98.90
2023-02-19T04:19:11.343Z,98.60
2023-02-19T04:21:41.399Z,98.37
2023-02-19T04:24:14.432Z,97.70
2023-02-19T04:26:42.348Z,98.18
2023-02-19T04:29:08.850Z,99.11
2023-02-19T04:31:36.482Z,97.89
2023-02-19T04:34:04.249Z,97.83
2023-02-19T04:36:34.220Z,97.12
2023-02-19T04:39:00.794Z,97.38
2023-02-19T04:41:27.342Z,96.53
2023-02-19T04:43:53.982Z,94.95
2023-02-19T04:46:20.653Z,93.96
2023-02-19T04:48:47.299Z,92.89
2023-02-19T04:51:13.901Z,92.62
2023-02-19T04:53:40.493Z,93.64
2023-02-19T04:56:12.708Z,94.16
2023-02-19T04:58:40.627Z,94.82
2023-02-19T05:01:08.218Z,93.85
2023-02-19T05:03:35.304Z,95.18
2023-02-19T05:06:11.282Z,95.85
2023-02-19T05:08:38.555Z,95.81
2023-02-19T05:11:06.171Z,96.05
2023-02-19T05:13:33.335Z,96.86
2023-02-19T05:16:02.119Z,97.15
2023-02-19T05:18:30.128Z,95.14
2023-02-19T05:20:58.011Z,93.56
2023-02-19T05:23:25.678Z,94.92
2023-02-19T05:25:52.261Z,94.25
2023-02-19T05:28:19.465Z,92.05
2023-02-19T05:30:50.622Z,92.56
2023-02-19T05:33:19.530Z,94.77
2023-02-19T05:35:48.865Z,96.79
2023-02-19T05:38:16.676Z,98.68
2023-02-19T05:40:43.996Z,98.44
2023-02-19T05:43:10.675Z,96.71
2023-02-19T05:45:37.950Z,96.49
2023-02-19T05:48:04.761Z,97.02
2023-02-19T05:50:39.415Z,100.00
2023-02-19T05:53:06.515Z,100.00
2023-02-19T05:55:36.325Z,99.24
2023-02-19T05:58:03.352Z,98.24
2023-02-19T06:00:30.695Z,98.51
2023-02-19T06:02:57.285Z,99.66
2023-02-19T06:05:23.930Z,98.44
2023-02-19T06:07:50.647Z,98.03
2023-02-19T06:10:18.160Z,97.00
2023-02-19T06:12:44.780Z,95.93
2023-02-19T06:15:11.364Z,95.92
2023-02-19T06:17:37.895Z,96.07
2023-02-19T06:20:04.632Z,95.32
2023-02-19T06:22:31.149Z,95.02
2023-02-19T06:24:58.144Z,95.07
2023-02-19T06:27:24.699Z,95.55
2023-02-19T06:29:51.446Z,95.28
2023-02-19T06:49:16.570Z,81.55
2023-02-19T06:51:43.266Z,80.52
2023-02-19T06:54:09.875Z,79.91
2023-02-19T06:56:39.590Z,78.62
2023-02-19T06:59:13.052Z,78.54
2023-02-19T07:01:40.567Z,77.77
2023-02-19T07:04:08.024Z,76.81
2023-02-19T07:06:35.461Z,76.70
2023-02-19T07:09:02.422Z,74.28
2023-02-19T07:11:31.842Z,75.19
2023-02-19T07:14:00.125Z,72.21
2023-02-19T07:16:27.879Z,71.27
2023-02-19T07:18:58.044Z,70.39
2023-02-19T07:21:24.773Z,69.75
2023-02-19T07:23:51.313Z,67.13
2023-02-19T07:26:19.396Z,66.40
2023-02-19T07:28:48.304Z,65.30
2023-02-19T07:31:16.748Z,62.67
2023-02-19T07:33:44.580Z,61.27
2023-02-19T07:36:11.974Z,62.09
2023-02-19T07:38:38.406Z,62.16
2023-02-19T07:41:05.989Z,62.14
2023-02-19T07:43:37.603Z,62.25
2023-02-19T07:46:05.979Z,62.22
2023-02-19T07:48:34.162Z,61.74
2023-02-19T07:51:01.500Z,61.09
2023-02-19T07:53:29.057Z,59.68
2023-02-19T07:56:04.058Z,57.79
2023-02-19T07:58:31.168Z,57.34
2023-02-19T08:00:58.438Z,56.78
2023-02-19T08:03:24.993Z,57.15
2023-02-19T08:05:53.813Z,56.15
2023-02-19T08:08:20.582Z,55.37
2023-02-19T08:11:05.791Z,55.43
2023-02-19T08:13:33.342Z,54.34
2023-02-19T08:16:15.677Z,52.31
2023-02-19T08:18:44.612Z,51.57
2023-02-19T08:21:11.344Z,52.07
2023-02-19T08:23:38.332Z,52.79
2023-02-19T08:26:05.750Z,50.66
2023-02-19T08:28:32.968Z,50.31
2023-02-19T08:31:04.413Z,50.60
2023-02-19T08:33:31.123Z,48.60
2023-02-19T08:36:04.667Z,47.56
2023-02-19T08:38:34.837Z,45.65
2023-02-19T08:41:10.443Z,43.79
2023-02-19T08:43:37.984Z,42.57
2023-02-19T08:46:04.881Z,42.99
2023-02-19T08:48:31.553Z,39.49
2023-02-19T08:51:00.482Z,38.45
2023-02-19T08:53:27.397Z,38.02
2023-02-19T08:55:54.621Z,38.50
2023-02-19T08:58:21.464Z,37.17
2023-02-19T09:00:48.138Z,35.17
2023-02-19T09:03:14.737Z,34.94
2023-02-19T09:05:42.126Z,33.56
2023-02-19T09:08:09.240Z,32.90
2023-02-19T09:10:35.806Z,32.02
2023-02-19T09:13:02.673Z,33.16
2023-02-19T09:15:30.175Z,32.29
2023-02-19T09:17:57.299Z,31.81
2023-02-19T09:20:24.482Z,30.99
2023-02-19T09:22:56.464Z,31.09
2023-02-19T09:25:23.139Z,29.61
2023-02-19T09:27:49.666Z,29.94
2023-02-19T09:30:16.276Z,29.90
2023-02-19T09:32:42.805Z,29.54
2023-02-19T09:35:09.342Z,29.09
2023-02-19T09:37:35.928Z,29.37
2023-02-19T09:40:02.497Z,28.33
2023-02-19T09:42:31.388Z,29.71
2023-02-19T09:45:01.603Z,31.29
2023-02-19T09:47:35.043Z,31.93
2023-02-19T09:50:16.553Z,34.23
2023-02-19T09:52:56.143Z,36.81
2023-02-19T09:55:37.095Z,37.56
2023-02-19T09:58:16.950Z,37.76
2023-02-19T10:00:48.052Z,38.56
2023-02-19T10:03:34.560Z,39.01
2023-02-19T10:06:05.336Z,40.62
2023-02-19T10:08:34.908Z,41.12
2023-02-19T10:11:04.718Z,40.73
2023-02-19T10:13:39.853Z,41.59
2023-02-19T10:16:10.036Z,40.29
2023-02-19T10:18:43.452Z,40.13
2023-02-19T10:21:16.095Z,40.51
2023-02-19T10:23:44.225Z,40.50
2023-02-19T10:26:10.876Z,40.80
2023-02-19T10:28:38.078Z,41.28
2023-02-19T10:31:15.369Z,41.15
2023-02-19T10:34:02.103Z,41.29
2023-02-19T10:36:36.311Z,41.27
2023-02-19T10:39:22.766Z,42.20
2023-02-19T10:41:54.627Z,41.70
2023-02-19T10:44:27.478Z,40.57
2023-02-19T10:46:57.152Z,40.34
2023-02-19T10:49:28.500Z,40.44
2023-02-19T10:51:56.564Z,39.32
2023-02-19T10:54:30.271Z,39.73
2023-02-19T10:57:33.225Z,38.53
2023-02-19T11:00:18.816Z,38.64
2023-02-19T11:02:45.864Z,38.30
2023-02-19T11:05:14.494Z,38.03
2023-02-19T11:07:47.237Z,38.48
2023-02-19T11:10:42.523Z,38.25
2023-02-19T11:13:22.265Z,37.98
2023-02-19T11:15:54.069Z,38.54
2023-02-19T11:18:32.338Z,37.96
2023-02-19T11:21:02.978Z,38.22
2023-02-19T11:23:32.397Z,36.92
2023-02-19T11:26:03.464Z,37.58
2023-02-19T11:28:40.224Z,36.79
2023-02-19T11:31:24.632Z,36.72
2023-02-19T11:34:02.846Z,36.42
2023-02-19T11:36:34.813Z,36.89
2023-02-19T11:39:10.230Z,37.87
2023-02-19T11:41:58.022Z,36.24
2023-02-19T11:44:47.802Z,36.02
2023-02-19T11:47:58.266Z,36.02
2023-02-19T11:50:38.096Z,35.72
2023-02-19T11:53:16.636Z,35.55
2023-02-19T11:55:50.033Z,34.00
2023-02-19T11:58:22.229Z,34.01
2023-02-19T12:01:11.906Z,34.54
2023-02-19T12:03:57.511Z,34.46
2023-02-19T12:06:45.391Z,34.57
2023-02-19T12:09:23.632Z,34.24
2023-02-19T12:12:17.711Z,34.63
2023-02-19T12:14:50.281Z,33.71
2023-02-19T12:17:32.245Z,33.87
2023-02-19T12:20:07.770Z,33.82
2023-02-19T12:22:44.830Z,34.34
2023-02-19T12:25:23.846Z,33.35
2023-02-19T12:28:10.633Z,32.79
2023-02-19T12:30:52.091Z,33.82
2023-02-19T12:33:43.531Z,33.35
2023-02-19T12:36:13.234Z,33.21
2023-02-19T12:38:54.304Z,32.89
2023-02-19T12:41:36.568Z,33.01
2023-02-19T12:44:44.011Z,32.82
2023-02-19T12:47:19.599Z,33.30
2023-02-19T12:49:59.227Z,32.88
2023-02-19T12:52:31.909Z,32.91
2023-02-19T12:55:07.339Z,33.38
2023-02-19T12:57:38.756Z,32.82
2023-02-19T13:00:17.496Z,32.88
2023-02-19T13:03:23.615Z,33.41
2023-02-19T13:05:58.662Z,33.18
2023-02-19T13:08:35.608Z,32.38
2023-02-19T13:11:22.283Z,32.75
2023-02-19T13:13:51.703Z,32.52
2023-02-19T13:16:21.009Z,33.42
2023-02-19T13:18:58.238Z,33.01
2023-02-19T13:21:53.494Z,32.41
2023-02-19T13:24:36.901Z,32.99
2023-02-19T13:27:21.897Z,33.15
2023-02-19T13:29:52.932Z,32.44
2023-02-19T13:32:37.849Z,32.65
2023-02-19T13:35:07.482Z,33.03
2023-02-19T13:37:35.509Z,32.82
2023-02-19T13:40:19.617Z,33.18
2023-02-19T13:42:55.188Z,33.12
2023-02-19T13:45:26.181Z,33.40
2023-02-19T13:47:57.002Z,33.29
2023-02-19T13:50:34.657Z,33.30
2023-02-19T13:53:22.263Z,33.62
2023-02-19T13:55:52.551Z,33.24
2023-02-19T13:58:34.533Z,32.94
2023-02-19T14:01:02.299Z,33.33
2023-02-19T14:03:39.448Z,33.44
2023-02-19T14:06:07.619Z,33.75
2023-02-19T14:08:51.409Z,33.38
2023-02-19T14:11:38.281Z,33.42
2023-02-19T14:14:23.970Z,34.61
2023-02-19T14:16:55.721Z,35.82
2023-02-19T14:19:46.933Z,34.65
2023-02-19T14:22:47.687Z,35.67
2023-02-19T14:25:38.461Z,34.47
2023-02-19T14:28:17.404Z,35.01
2023-02-19T14:31:16.427Z,36.72
2023-02-19T14:33:48.560Z,36.42
2023-02-19T14:36:18.039Z,36.21
2023-02-19T14:38:56.754Z,36.67
2023-02-19T14:41:24.732Z,37.66
2023-02-19T14:43:53.947Z,38.12
2023-02-19T14:46:30.746Z,35.43
2023-02-19T14:49:07.357Z,36.02
2023-02-19T14:51:39.880Z,34.58
2023-02-19T14:54:20.884Z,34.76
2023-02-19T14:56:51.912Z,34.18
2023-02-19T14:59:36.548Z,33.66
2023-02-19T15:02:13.987Z,33.98
2023-02-19T15:04:40.649Z,34.31
2023-02-19T15:07:10.328Z,33.75
2023-02-19T15:09:41.691Z,34.35
2023-02-19T15:12:14.229Z,34.06
2023-02-19T15:14:41.129Z,33.98
2023-02-19T15:17:07.886Z,34.44
2023-02-19T15:19:37.443Z,34.35
2023-02-19T15:22:04.224Z,35.00
2023-02-19T15:24:30.879Z,34.91
2023-02-19T15:27:03.412Z,35.33
2023-02-19T15:29:30.174Z,35.87
2023-02-19T15:31:59.399Z,35.12
2023-02-19T15:34:31.480Z,35.27
2023-02-19T15:36:59.776Z,35.71
2023-02-19T15:39:41.265Z,35.77
2023-02-19T15:42:14.987Z,35.88
2023-02-19T15:44:48.508Z,36.05
2023-02-19T15:47:34.868Z,35.71
2023-02-19T15:50:12.618Z,35.67
2023-02-19T15:52:49.788Z,36.01
2023-02-19T15:55:42.631Z,35.79
2023-02-19T15:58:31.696Z,36.62
2023-02-19T16:01:02.368Z,36.45
2023-02-19T16:03:30.482Z,36.10
2023-02-19T16:06:27.120Z,35.81
2023-02-19T16:09:02.222Z,35.80
2023-02-19T16:11:56.667Z,35.95
2023-02-19T16:14:33.595Z,36.12
2023-02-19T16:17:10.546Z,36.17
2023-02-19T16:19:43.620Z,36.47
2023-02-19T16:22:17.576Z,35.99
2023-02-19T16:24:53.872Z,36.39
2023-02-19T16:27:32.588Z,36.14
2023-02-19T16:30:03.934Z,35.88
2023-02-19T16:32:30.496Z,36.08
2023-02-19T16:34:57.104Z,36.29
2023-02-19T16:37:44.179Z,36.73
2023-02-19T16:40:16.417Z,36.67
2023-02-19T16:42:49.127Z,37.02
2023-02-19T16:45:16.580Z,37.31
2023-02-19T16:47:48.254Z,37.27
2023-02-19T16:50:18.509Z,37.75
2023-02-19T16:52:56.244Z,37.82
2023-02-19T16:55:23.052Z,38.51
2023-02-19T16:57:50.165Z,38.66
2023-02-19T17:00:29.025Z,38.73
2023-02-19T17:02:59.576Z,38.89
2023-02-19T17:05:29.043Z,38.74
2023-02-19T17:07:55.596Z,39.37
2023-02-19T17:10:26.043Z,39.63
2023-02-19T17:12:54.588Z,39.48
2023-02-19T17:15:22.333Z,39.15
2023-02-19T17:17:49.387Z,39.12
2023-02-19T17:20:15.820Z,39.59
2023-02-19T17:22:42.672Z,39.33
2023-02-19T17:25:09.223Z,39.94
2023-02-19T17:27:36.062Z,40.35
2023-02-19T17:30:02.970Z,40.78
2023-02-19T17:32:29.599Z,41.35
2023-02-19T17:34:56.228Z,41.16
2023-02-19T17:37:22.759Z,41.30
2023-02-19T17:39:49.464Z,41.87
2023-02-19T17:42:16.023Z,41.37
2023-02-19T17:44:42.925Z,41.74
2023-02-19T17:47:09.440Z,43.61
2023-02-19T17:49:36.373Z,43.90
2023-02-19T17:52:03.048Z,44.08
2023-02-19T17:54:29.674Z,44.35
2023-02-19T17:56:56.201Z,45.23
2023-02-19T17:59:22.826Z,45.57
2023-02-19T18:01:49.346Z,46.01
2023-02-19T18:04:15.863Z,45.94
2023-02-19T18:06:42.948Z,45.79
2023-02-19T18:09:10.775Z,46.00
2023-02-19T18:11:37.540Z,45.81
2023-02-19T18:14:04.112Z,47.13
2023-02-19T18:16:30.622Z,47.30
2023-02-19T18:18:59.856Z,47.68
2023-02-19T18:21:26.446Z,47.79
2023-02-19T18:23:52.957Z,48.23
2023-02-19T18:26:21.131Z,48.45
2023-02-19T18:28:47.698Z,49.00
2023-02-19T18:31:14.568Z,48.87
2023-02-19T18:33:41.395Z,49.84
2023-02-19T18:36:10.920Z,50.05
2023-02-19T18:38:37.429Z,50.26
2023-02-19T18:41:04.153Z,50.86
2023-02-19T18:43:30.716Z,50.90
2023-02-19T18:45:57.332Z,51.10
2023-02-19T18:48:24.017Z,50.51
2023-02-19T18:50:50.575Z,50.67
2023-02-19T18:53:17.148Z,50.78
2023-02-19T18:55:43.814Z,50.77
2023-02-19T18:58:10.310Z,50.77
2023-02-19T19:00:36.922Z,50.95
2023-02-19T19:03:03.836Z,50.59
2023-02-19T19:05:30.533Z,50.18
2023-02-19T19:07:59.446Z,49.86
2023-02-19T19:10:26.978Z,49.95
2023-02-19T19:12:54.404Z,50.02
2023-02-19T19:15:21.742Z,50.01
2023-02-19T19:17:48.613Z,51.38
2023-02-19T19:20:21.319Z,50.80
2023-02-19T19:22:52.234Z,52.52
2023-02-19T19:25:19.782Z,51.88
2023-02-19T19:27:46.689Z,52.46
2023-02-19T19:30:13.673Z,52.88
2023-02-19T19:32:40.246Z,53.82
2023-02-19T19:35:07.116Z,52.84
2023-02-19T19:37:33.675Z,52.87
2023-02-19T19:40:00.396Z,52.42
2023-02-19T19:42:27.237Z,52.04
2023-02-19T19:44:53.843Z,52.92
2023-02-19T19:47:20.740Z,53.50
2023-02-19T19:49:47.478Z,52.61
2023-02-19T19:52:14.913Z,52.78
2023-02-19T19:54:44.400Z,52.92
2023-02-19T19:57:11.486Z,52.72
2023-02-19T19:59:39.546Z,53.91
2023-02-19T20:02:07.247Z,53.95
2023-02-19T20:04:33.924Z,53.79
2023-02-19T20:07:00.538Z,54.29
2023-02-19T20:09:29.032Z,54.27
2023-02-19T20:11:56.649Z,53.96
2023-02-19T20:14:25.253Z,53.35
2023-02-19T20:16:52.900Z,52.66
2023-02-19T20:19:20.447Z,51.99
2023-02-19T20:21:48.332Z,51.41
2023-02-19T20:24:16.650Z,51.18
2023-02-19T20:26:43.877Z,50.33
2023-02-19T20:29:10.568Z,50.14
2023-02-19T20:31:38.167Z,50.10
2023-02-19T20:34:05.071Z,49.67
2023-02-19T20:36:32.787Z,49.51
2023-02-19T20:38:59.467Z,49.39
2023-02-19T20:41:26.320Z,49.33
2023-02-19T20:43:52.873Z,49.01
2023-02-19T20:46:19.637Z,49.09
2023-02-19T20:48:46.390Z,48.69
2023-02-19T20:51:13.044Z,48.50
2023-02-19T20:53:42.303Z,48.43
2023-02-19T20:56:11.432Z,48.84
2023-02-19T20:58:40.758Z,49.06
2023-02-19T21:01:07.379Z,48.56
2023-02-19T21:03:34.089Z,48.75
2023-02-19T21:06:00.655Z,48.52
2023-02-19T21:08:27.272Z,48.52
2023-02-19T21:10:55.108Z,48.98
2023-02-19T21:13:21.978Z,48.31
2023-02-19T21:15:48.578Z,48.89
2023-02-19T21:18:16.447Z,48.43
2023-02-19T21:20:42.954Z,49.10
2023-02-19T21:23:09.575Z,49.04
2023-02-19T21:25:36.071Z,49.34
2023-02-19T21:28:02.658Z,49.01
2023-02-19T21:30:29.314Z,49.61
2023-02-19T21:32:55.987Z,49.53
2023-02-19T21:35:22.554Z,49.78
2023-02-19T21:37:49.185Z,49.91
2023-02-19T21:40:15.982Z,50.01
2023-02-19T21:42:42.548Z,50.12
2023-02-19T21:45:09.267Z,50.58
2023-02-19T21:47:35.846Z,50.22
2023-02-19T21:50:02.463Z,50.48
2023-02-19T21:52:31.180Z,50.08
2023-02-19T21:54:57.973Z,50.47
2023-02-19T21:57:24.548Z,50.70
2023-02-19T21:59:51.114Z,50.49
2023-02-19T22:02:20.144Z,50.47
2023-02-19T22:04:46.943Z,50.73
2023-02-19T22:07:13.492Z,50.89
2023-02-19T22:09:40.492Z,50.45
2023-02-19T22:12:07.142Z,51.05
2023-02-19T22:14:33.753Z,51.05
2023-02-19T22:17:00.320Z,51.15
2023-02-19T22:19:26.869Z,51.32
2023-02-19T22:21:53.430Z,51.02
2023-02-19T22:24:21.741Z,51.55
2023-02-19T22:26:50.700Z,51.91
2023-02-19T22:29:17.913Z,52.14
2023-02-19T22:31:44.637Z,52.48
2023-02-19T22:34:11.291Z,52.38
2023-02-19T22:36:37.876Z,52.78
2023-02-19T22:39:06.478Z,52.61
2023-02-19T22:41:33.285Z,52.44
2023-02-19T22:44:00.207Z,52.71
2023-02-19T22:46:29.956Z,53.08
2023-02-19T22:48:57.312Z,53.25
2023-02-19T22:51:24.606Z,52.92
2023-02-19T22:53:54.055Z,53.38
2023-02-19T22:56:24.658Z,53.02
2023-02-19T22:58:52.142Z,53.25
2023-02-19T23:01:19.173Z,53.43
2023-02-19T23:03:52.902Z,53.43
2023-02-19T23:06:28.089Z,53.50
2023-02-19T23:08:56.759Z,53.55
2023-02-19T23:11:26.035Z,53.64
2023-02-19T23:13:53.393Z,53.55
2023-02-19T23:16:20.507Z,53.51
2023-02-19T23:18:47.164Z,53.53
2023-02-19T23:21:13.851Z,53.59
2023-02-19T23:23:44.866Z,53.42
2023-02-19T23:26:12.848Z,53.61
2023-02-19T23:28:40.646Z,53.61
2023-02-19T23:31:07.490Z,53.87
2023-02-19T23:33:34.522Z,53.42
2023-02-19T23:36:01.042Z,53.56
2023-02-19T23:38:27.712Z,53.66
2023-02-19T23:40:54.235Z,53.71
2023-02-19T23:43:21.213Z,53.83
2023-02-19T23:45:48.254Z,53.79
2023-02-19T23:48:14.846Z,54.19
2023-02-19T23:50:41.417Z,54.63
2023-02-19T23:53:07.994Z,54.83
2023-02-19T23:55:34.568Z,55.00
2023-02-19T23:58:01.103Z,54.99
